Airfield :
LOGIN :

Register | Disclaimer

   EN    FR    IT 

 










Legend :    VFR   Marginal VFR   IFR   Intensive IFR   Very Intensive IFR
Visi :
Ceiling :
>= 8 km
>= 3000ft
5 to 8 km
1000 to 3000 ft
1500m to 5 km
500 to 1000 ft
800 to 1500m
200 to 500 ft
< 800m
< 200 ft
Symbols :   Thunderstorms  Fog  Heavy snow  Heavy precipitations  Wind > 20 kt
SIGMETs :     Misc.  Thunderstorms  Icing  Turbulence  Mountain Waves  Volcanic Ashes







- Airport Elevation : 659 ft
- IATA code : LGG


EBLG - Liège

CURRENT METAR :
  • 161720Z 30005KT 260V330 9999 FEW045 26/14 Q1014 NOSIG

EXPIRED METARs :
  • 161650Z 27006KT 230V300 9999 FEW045 27/13 Q1014 NOSIG
  • 161620Z 28006KT CAVOK 26/14 Q1014 NOSIG
  • 161550Z 30005KT 270V330 CAVOK 26/14 Q1014 NOSIG
  • 161520Z 30005KT 250V350 CAVOK 27/15 Q1014 NOSIG
  • 161450Z 30005KT 240V360 CAVOK 26/14 Q1015 NOSIG
  • 161420Z 24003KT 150V310 9999 FEW045 27/15 Q1015 NOSIG

TAF TAF EBLG
Valid from the 16 at 12:00 until the 17 at 18:00 UTC


161102Z 1612/1718 23007KT 9999 FEW035
TEMPO 1619/1702 33010G20KT
TEMPO 1702/1708 VRB18G30KT 2500 TSRA SCT004 BKN006 BKN014CB
No reported NOTAMs for that airfield.



MET'MAP, your aeronautical weather chart ! - Copyright ORBIFLY December 2007 - Disclaimer

ORBIFLY MET'MAP TEAM :

Programming & Development : Alexandra Zaïnal
Concept & Development : Baudouin d'Aumeries
Co-Development & Prog : Marc-Olivier Méhu
Technical & hardware support : Manuel Goepfert

Contact : metmap@orbifly.com




SOURCES & CREDITS :

   NOAA